sensor_id;sensor_type;location;lat;lon;timestamp;P1;durP1;ratioP1;P2;durP2;ratioP2
61358;SDS011;47228;46.762;23.598;2023-03-01T00:01:41;56.00;;;32.70;;
61358;SDS011;47228;46.762;23.598;2023-03-01T00:04:09;56.40;;;32.40;;
61358;SDS011;47228;46.762;23.598;2023-03-01T00:06:37;54.90;;;32.20;;
61358;SDS011;47228;46.762;23.598;2023-03-01T00:09:06;60.70;;;34.10;;
61358;SDS011;47228;46.762;23.598;2023-03-01T00:11:34;59.40;;;33.70;;
61358;SDS011;47228;46.762;23.598;2023-03-01T00:14:02;60.00;;;36.10;;
61358;SDS011;47228;46.762;23.598;2023-03-01T00:16:33;61.90;;;34.00;;
61358;SDS011;47228;46.762;23.598;2023-03-01T00:19:03;57.10;;;34.10;;
61358;SDS011;47228;46.762;23.598;2023-03-01T00:21:31;61.10;;;34.20;;
61358;SDS011;47228;46.762;23.598;2023-03-01T00:23:59;55.80;;;32.30;;
61358;SDS011;47228;46.762;23.598;2023-03-01T00:26:27;56.30;;;32.90;;
61358;SDS011;47228;46.762;23.598;2023-03-01T00:28:56;56.10;;;31.80;;
61358;SDS011;47228;46.762;23.598;2023-03-01T00:31:27;53.30;;;32.20;;
61358;SDS011;47228;46.762;23.598;2023-03-01T00:36:30;51.70;;;31.60;;
61358;SDS011;47228;46.762;23.598;2023-03-01T00:39:04;54.00;;;31.20;;
61358;SDS011;47228;46.762;23.598;2023-03-01T00:41:33;50.00;;;29.10;;
61358;SDS011;47228;46.762;23.598;2023-03-01T00:44:02;50.00;;;28.10;;
61358;SDS011;47228;46.762;23.598;2023-03-01T00:46:30;53.70;;;32.00;;
61358;SDS011;47228;46.762;23.598;2023-03-01T00:48:59;53.20;;;30.00;;
61358;SDS011;47228;46.762;23.598;2023-03-01T00:51:29;45.10;;;26.60;;
61358;SDS011;47228;46.762;23.598;2023-03-01T00:53:59;47.80;;;27.60;;
61358;SDS011;47228;46.762;23.598;2023-03-01T00:56:31;45.60;;;26.60;;
61358;SDS011;47228;46.762;23.598;2023-03-01T00:59:00;45.70;;;26.20;;
61358;SDS011;47228;46.762;23.598;2023-03-01T01:01:29;48.70;;;28.50;;
61358;SDS011;47228;46.762;23.598;2023-03-01T01:03:59;46.30;;;27.90;;
61358;SDS011;47228;46.762;23.598;2023-03-01T01:06:31;43.50;;;25.60;;
61358;SDS011;47228;46.762;23.598;2023-03-01T01:09:01;46.80;;;26.10;;
61358;SDS011;47228;46.762;23.598;2023-03-01T01:11:30;43.80;;;25.30;;
61358;SDS011;47228;46.762;23.598;2023-03-01T01:13:59;41.90;;;24.50;;
61358;SDS011;47228;46.762;23.598;2023-03-01T01:16:27;43.40;;;25.00;;
61358;SDS011;47228;46.762;23.598;2023-03-01T01:18:56;44.00;;;24.70;;
61358;SDS011;47228;46.762;23.598;2023-03-01T01:21:25;43.50;;;24.30;;
61358;SDS011;47228;46.762;23.598;2023-03-01T01:23:54;40.40;;;23.60;;
61358;SDS011;47228;46.762;23.598;2023-03-01T01:26:24;40.80;;;22.60;;
61358;SDS011;47228;46.762;23.598;2023-03-01T01:28:54;40.20;;;23.50;;
61358;SDS011;47228;46.762;23.598;2023-03-01T01:31:22;42.40;;;23.20;;
61358;SDS011;47228;46.762;23.598;2023-03-01T01:33:51;37.00;;;23.40;;
61358;SDS011;47228;46.762;23.598;2023-03-01T01:36:20;47.50;;;25.50;;
61358;SDS011;47228;46.762;23.598;2023-03-01T01:38:49;47.40;;;26.30;;
61358;SDS011;47228;46.762;23.598;2023-03-01T01:41:18;47.50;;;26.10;;
61358;SDS011;47228;46.762;23.598;2023-03-01T01:43:48;43.40;;;25.20;;
61358;SDS011;47228;46.762;23.598;2023-03-01T01:46:37;43.70;;;24.70;;
61358;SDS011;47228;46.762;23.598;2023-03-01T01:57:11;48.10;;;25.90;;
61358;SDS011;47228;46.762;23.598;2023-03-01T01:59:45;46.70;;;27.10;;
61358;SDS011;47228;46.762;23.598;2023-03-01T02:02:16;50.00;;;27.50;;
61358;SDS011;47228;46.762;23.598;2023-03-01T02:04:44;50.30;;;27.00;;
61358;SDS011;47228;46.762;23.598;2023-03-01T02:07:17;50.00;;;27.60;;
61358;SDS011;47228;46.762;23.598;2023-03-01T02:09:48;54.00;;;29.30;;
61358;SDS011;47228;46.762;23.598;2023-03-01T02:12:19;45.10;;;24.20;;
61358;SDS011;47228;46.762;23.598;2023-03-01T02:14:50;39.80;;;21.30;;
61358;SDS011;47228;46.762;23.598;2023-03-01T02:17:18;35.80;;;19.60;;
61358;SDS011;47228;46.762;23.598;2023-03-01T02:22:49;35.20;;;19.50;;
61358;SDS011;47228;46.762;23.598;2023-03-01T02:28:29;34.30;;;19.80;;
61358;SDS011;47228;46.762;23.598;2023-03-01T02:31:05;33.70;;;19.20;;
61358;SDS011;47228;46.762;23.598;2023-03-01T02:33:54;32.00;;;19.40;;
61358;SDS011;47228;46.762;23.598;2023-03-01T02:36:28;33.90;;;20.00;;
61358;SDS011;47228;46.762;23.598;2023-03-01T02:39:02;38.90;;;20.80;;
61358;SDS011;47228;46.762;23.598;2023-03-01T02:41:34;38.90;;;20.40;;
61358;SDS011;47228;46.762;23.598;2023-03-01T02:44:04;39.90;;;22.50;;
61358;SDS011;47228;46.762;23.598;2023-03-01T02:46:33;46.90;;;24.70;;
61358;SDS011;47228;46.762;23.598;2023-03-01T02:49:01;45.40;;;25.50;;
61358;SDS011;47228;46.762;23.598;2023-03-01T02:56:49;44.20;;;23.20;;
61358;SDS011;47228;46.762;23.598;2023-03-01T02:59:19;43.50;;;23.10;;
61358;SDS011;47228;46.762;23.598;2023-03-01T03:01:50;43.50;;;22.60;;
61358;SDS011;47228;46.762;23.598;2023-03-01T03:04:18;41.70;;;22.20;;
61358;SDS011;47228;46.762;23.598;2023-03-01T03:06:49;44.30;;;23.10;;
61358;SDS011;47228;46.762;23.598;2023-03-01T03:09:18;47.80;;;24.70;;
61358;SDS011;47228;46.762;23.598;2023-03-01T03:11:46;52.10;;;26.10;;
61358;SDS011;47228;46.762;23.598;2023-03-01T03:14:15;50.60;;;26.30;;
61358;SDS011;47228;46.762;23.598;2023-03-01T03:16:45;56.10;;;29.40;;
61358;SDS011;47228;46.762;23.598;2023-03-01T03:19:15;52.50;;;28.10;;
61358;SDS011;47228;46.762;23.598;2023-03-01T03:21:44;57.30;;;27.80;;
61358;SDS011;47228;46.762;23.598;2023-03-01T03:24:13;56.70;;;29.50;;
61358;SDS011;47228;46.762;23.598;2023-03-01T03:26:41;56.80;;;28.50;;
61358;SDS011;47228;46.762;23.598;2023-03-01T03:29:09;60.80;;;30.30;;
61358;SDS011;47228;46.762;23.598;2023-03-01T03:31:36;54.90;;;28.20;;
61358;SDS011;47228;46.762;23.598;2023-03-01T03:34:04;53.40;;;29.20;;
61358;SDS011;47228;46.762;23.598;2023-03-01T03:36:32;50.80;;;27.00;;
61358;SDS011;47228;46.762;23.598;2023-03-01T03:39:00;55.50;;;28.20;;
61358;SDS011;47228;46.762;23.598;2023-03-01T03:41:28;59.90;;;29.80;;
61358;SDS011;47228;46.762;23.598;2023-03-01T03:43:56;60.10;;;32.20;;
61358;SDS011;47228;46.762;23.598;2023-03-01T03:46:24;58.00;;;30.30;;
61358;SDS011;47228;46.762;23.598;2023-03-01T03:48:52;58.40;;;31.50;;
61358;SDS011;47228;46.762;23.598;2023-03-01T03:51:20;58.90;;;29.80;;
61358;SDS011;47228;46.762;23.598;2023-03-01T03:53:50;60.20;;;31.20;;
61358;SDS011;47228;46.762;23.598;2023-03-01T03:56:18;56.60;;;29.60;;
61358;SDS011;47228;46.762;23.598;2023-03-01T03:58:46;62.70;;;31.20;;
61358;SDS011;47228;46.762;23.598;2023-03-01T04:01:14;60.60;;;29.10;;
61358;SDS011;47228;46.762;23.598;2023-03-01T04:03:42;64.00;;;31.30;;
61358;SDS011;47228;46.762;23.598;2023-03-01T04:06:14;61.60;;;30.30;;
61358;SDS011;47228;46.762;23.598;2023-03-01T04:08:42;54.00;;;28.50;;
61358;SDS011;47228;46.762;23.598;2023-03-01T04:11:10;56.70;;;29.00;;
61358;SDS011;47228;46.762;23.598;2023-03-01T04:16:25;59.70;;;30.30;;
61358;SDS011;47228;46.762;23.598;2023-03-01T04:18:54;64.00;;;31.30;;
61358;SDS011;47228;46.762;23.598;2023-03-01T04:21:22;66.40;;;31.40;;
61358;SDS011;47228;46.762;23.598;2023-03-01T04:23:50;63.70;;;30.80;;
61358;SDS011;47228;46.762;23.598;2023-03-01T04:26:20;55.70;;;28.40;;
61358;SDS011;47228;46.762;23.598;2023-03-01T04:28:48;61.20;;;30.30;;
61358;SDS011;47228;46.762;23.598;2023-03-01T04:31:18;58.00;;;30.00;;
61358;SDS011;47228;46.762;23.598;2023-03-01T04:33:49;61.80;;;30.20;;
61358;SDS011;47228;46.762;23.598;2023-03-01T04:36:22;59.60;;;30.70;;
61358;SDS011;47228;46.762;23.598;2023-03-01T04:38:56;58.40;;;28.90;;
61358;SDS011;47228;46.762;23.598;2023-03-01T04:41:24;63.30;;;32.20;;
61358;SDS011;47228;46.762;23.598;2023-03-01T04:43:53;61.40;;;30.80;;
61358;SDS011;47228;46.762;23.598;2023-03-01T04:46:21;65.10;;;30.60;;
61358;SDS011;47228;46.762;23.598;2023-03-01T04:48:49;61.10;;;31.00;;
61358;SDS011;47228;46.762;23.598;2023-03-01T04:51:17;60.70;;;30.50;;
61358;SDS011;47228;46.762;23.598;2023-03-01T04:53:46;62.80;;;31.10;;
61358;SDS011;47228;46.762;23.598;2023-03-01T04:56:14;66.20;;;31.40;;
61358;SDS011;47228;46.762;23.598;2023-03-01T04:58:43;60.30;;;29.40;;
61358;SDS011;47228;46.762;23.598;2023-03-01T05:01:13;56.70;;;28.30;;
61358;SDS011;47228;46.762;23.598;2023-03-01T05:03:47;61.50;;;29.40;;
61358;SDS011;47228;46.762;23.598;2023-03-01T05:06:18;54.50;;;29.10;;
61358;SDS011;47228;46.762;23.598;2023-03-01T05:08:47;59.20;;;28.40;;
61358;SDS011;47228;46.762;23.598;2023-03-01T05:11:15;60.60;;;32.10;;
61358;SDS011;47228;46.762;23.598;2023-03-01T05:13:43;63.50;;;33.30;;
61358;SDS011;47228;46.762;23.598;2023-03-01T05:16:11;66.70;;;32.70;;
61358;SDS011;47228;46.762;23.598;2023-03-01T05:18:40;66.30;;;31.00;;
61358;SDS011;47228;46.762;23.598;2023-03-01T05:21:12;67.50;;;32.30;;
61358;SDS011;47228;46.762;23.598;2023-03-01T05:23:44;63.00;;;31.00;;
61358;SDS011;47228;46.762;23.598;2023-03-01T05:26:15;61.20;;;31.80;;
61358;SDS011;47228;46.762;23.598;2023-03-01T05:29:00;65.70;;;32.50;;
61358;SDS011;47228;46.762;23.598;2023-03-01T05:31:28;69.60;;;34.60;;
61358;SDS011;47228;46.762;23.598;2023-03-01T05:33:58;78.80;;;35.50;;
61358;SDS011;47228;46.762;23.598;2023-03-01T05:36:26;74.40;;;34.70;;
61358;SDS011;47228;46.762;23.598;2023-03-01T05:38:54;68.50;;;34.60;;
61358;SDS011;47228;46.762;23.598;2023-03-01T05:41:23;79.70;;;36.00;;
61358;SDS011;47228;46.762;23.598;2023-03-01T05:43:51;69.00;;;36.00;;
61358;SDS011;47228;46.762;23.598;2023-03-01T05:46:19;70.60;;;33.90;;
61358;SDS011;47228;46.762;23.598;2023-03-01T05:48:47;72.10;;;35.80;;
61358;SDS011;47228;46.762;23.598;2023-03-01T05:51:15;72.00;;;35.30;;
61358;SDS011;47228;46.762;23.598;2023-03-01T05:53:45;64.00;;;33.80;;
61358;SDS011;47228;46.762;23.598;2023-03-01T05:56:13;67.30;;;33.30;;
61358;SDS011;47228;46.762;23.598;2023-03-01T05:58:41;70.30;;;33.60;;
61358;SDS011;47228;46.762;23.598;2023-03-01T06:01:12;69.20;;;36.30;;
61358;SDS011;47228;46.762;23.598;2023-03-01T06:03:41;73.80;;;36.70;;
61358;SDS011;47228;46.762;23.598;2023-03-01T06:06:09;74.40;;;36.40;;
61358;SDS011;47228;46.762;23.598;2023-03-01T06:08:37;71.30;;;36.80;;
61358;SDS011;47228;46.762;23.598;2023-03-01T06:11:05;71.90;;;33.30;;
61358;SDS011;47228;46.762;23.598;2023-03-01T06:13:34;69.00;;;34.80;;
61358;SDS011;47228;46.762;23.598;2023-03-01T06:16:06;67.10;;;33.60;;
61358;SDS011;47228;46.762;23.598;2023-03-01T06:18:36;67.80;;;35.10;;
61358;SDS011;47228;46.762;23.598;2023-03-01T06:21:05;70.80;;;33.20;;
61358;SDS011;47228;46.762;23.598;2023-03-01T06:23:34;67.70;;;35.40;;
61358;SDS011;47228;46.762;23.598;2023-03-01T06:26:06;71.30;;;35.80;;
61358;SDS011;47228;46.762;23.598;2023-03-01T06:28:35;71.00;;;35.30;;
61358;SDS011;47228;46.762;23.598;2023-03-01T06:31:03;72.90;;;35.10;;
61358;SDS011;47228;46.762;23.598;2023-03-01T06:33:36;76.70;;;36.20;;
61358;SDS011;47228;46.762;23.598;2023-03-01T06:36:04;78.00;;;36.00;;
61358;SDS011;47228;46.762;23.598;2023-03-01T06:38:33;80.40;;;39.10;;
61358;SDS011;47228;46.762;23.598;2023-03-01T06:41:01;79.80;;;39.20;;
61358;SDS011;47228;46.762;23.598;2023-03-01T06:43:29;88.50;;;40.90;;
61358;SDS011;47228;46.762;23.598;2023-03-01T06:45:57;82.90;;;40.30;;
61358;SDS011;47228;46.762;23.598;2023-03-01T06:48:25;86.90;;;42.80;;
61358;SDS011;47228;46.762;23.598;2023-03-01T06:50:53;95.10;;;45.50;;
61358;SDS011;47228;46.762;23.598;2023-03-01T06:53:21;87.60;;;43.00;;
61358;SDS011;47228;46.762;23.598;2023-03-01T06:55:53;99.20;;;48.30;;
61358;SDS011;47228;46.762;23.598;2023-03-01T06:58:22;93.70;;;44.80;;
61358;SDS011;47228;46.762;23.598;2023-03-01T07:00:50;83.60;;;41.20;;
61358;SDS011;47228;46.762;23.598;2023-03-01T07:03:18;86.40;;;42.20;;
61358;SDS011;47228;46.762;23.598;2023-03-01T07:05:48;87.20;;;42.60;;
61358;SDS011;47228;46.762;23.598;2023-03-01T07:08:17;82.80;;;41.60;;
61358;SDS011;47228;46.762;23.598;2023-03-01T07:10:46;90.80;;;42.80;;
61358;SDS011;47228;46.762;23.598;2023-03-01T07:13:14;84.10;;;41.50;;
61358;SDS011;47228;46.762;23.598;2023-03-01T07:15:41;80.60;;;40.50;;
61358;SDS011;47228;46.762;23.598;2023-03-01T07:18:10;85.80;;;42.80;;
61358;SDS011;47228;46.762;23.598;2023-03-01T07:20:38;80.20;;;39.60;;
61358;SDS011;47228;46.762;23.598;2023-03-01T07:23:06;82.90;;;39.30;;
61358;SDS011;47228;46.762;23.598;2023-03-01T07:25:34;76.10;;;38.00;;
61358;SDS011;47228;46.762;23.598;2023-03-01T07:28:03;73.40;;;35.90;;
61358;SDS011;47228;46.762;23.598;2023-03-01T07:30:31;74.60;;;37.00;;
61358;SDS011;47228;46.762;23.598;2023-03-01T07:32:59;68.00;;;33.60;;
61358;SDS011;47228;46.762;23.598;2023-03-01T07:35:27;73.60;;;36.50;;
61358;SDS011;47228;46.762;23.598;2023-03-01T07:37:56;71.60;;;33.80;;
61358;SDS011;47228;46.762;23.598;2023-03-01T07:40:24;75.70;;;35.60;;
61358;SDS011;47228;46.762;23.598;2023-03-01T07:42:58;66.30;;;34.80;;
61358;SDS011;47228;46.762;23.598;2023-03-01T07:45:27;66.10;;;32.20;;
61358;SDS011;47228;46.762;23.598;2023-03-01T07:47:55;62.40;;;31.20;;
61358;SDS011;47228;46.762;23.598;2023-03-01T07:50:24;60.30;;;29.50;;
61358;SDS011;47228;46.762;23.598;2023-03-01T07:52:51;66.60;;;32.10;;
61358;SDS011;47228;46.762;23.598;2023-03-01T07:55:19;68.50;;;33.80;;
61358;SDS011;47228;46.762;23.598;2023-03-01T07:57:47;65.30;;;31.40;;
61358;SDS011;47228;46.762;23.598;2023-03-01T08:00:15;61.10;;;31.00;;
61358;SDS011;47228;46.762;23.598;2023-03-01T08:02:43;70.70;;;30.10;;
61358;SDS011;47228;46.762;23.598;2023-03-01T08:05:11;60.20;;;31.20;;
61358;SDS011;47228;46.762;23.598;2023-03-01T08:07:39;59.40;;;29.20;;
61358;SDS011;47228;46.762;23.598;2023-03-01T08:10:07;65.60;;;28.80;;
61358;SDS011;47228;46.762;23.598;2023-03-01T08:12:36;57.00;;;29.10;;
61358;SDS011;47228;46.762;23.598;2023-03-01T08:15:04;65.00;;;29.50;;
61358;SDS011;47228;46.762;23.598;2023-03-01T08:17:33;69.80;;;30.90;;
61358;SDS011;47228;46.762;23.598;2023-03-01T08:20:01;68.70;;;32.20;;
61358;SDS011;47228;46.762;23.598;2023-03-01T08:22:34;74.10;;;33.70;;
61358;SDS011;47228;46.762;23.598;2023-03-01T08:25:02;71.60;;;35.20;;
61358;SDS011;47228;46.762;23.598;2023-03-01T08:27:29;77.20;;;35.30;;
61358;SDS011;47228;46.762;23.598;2023-03-01T08:29:57;79.30;;;36.60;;
61358;SDS011;47228;46.762;23.598;2023-03-01T08:32:25;78.80;;;37.00;;
61358;SDS011;47228;46.762;23.598;2023-03-01T08:34:53;78.40;;;35.10;;
61358;SDS011;47228;46.762;23.598;2023-03-01T08:37:21;78.00;;;35.60;;
61358;SDS011;47228;46.762;23.598;2023-03-01T08:39:49;82.50;;;37.60;;
61358;SDS011;47228;46.762;23.598;2023-03-01T08:42:18;80.20;;;38.50;;
61358;SDS011;47228;46.762;23.598;2023-03-01T08:44:46;82.70;;;38.30;;
61358;SDS011;47228;46.762;23.598;2023-03-01T08:47:14;81.10;;;36.90;;
61358;SDS011;47228;46.762;23.598;2023-03-01T08:49:41;83.60;;;38.70;;
61358;SDS011;47228;46.762;23.598;2023-03-01T08:52:09;79.80;;;38.60;;
61358;SDS011;47228;46.762;23.598;2023-03-01T08:54:37;81.30;;;37.60;;
61358;SDS011;47228;46.762;23.598;2023-03-01T08:57:05;87.60;;;40.60;;
61358;SDS011;47228;46.762;23.598;2023-03-01T08:59:33;77.80;;;35.30;;
61358;SDS011;47228;46.762;23.598;2023-03-01T09:02:05;83.90;;;36.90;;
61358;SDS011;47228;46.762;23.598;2023-03-01T09:04:43;86.10;;;37.30;;
61358;SDS011;47228;46.762;23.598;2023-03-01T09:07:11;83.50;;;38.20;;
61358;SDS011;47228;46.762;23.598;2023-03-01T09:09:39;80.20;;;37.40;;
61358;SDS011;47228;46.762;23.598;2023-03-01T09:12:07;80.40;;;39.30;;
61358;SDS011;47228;46.762;23.598;2023-03-01T09:14:35;75.20;;;37.30;;
61358;SDS011;47228;46.762;23.598;2023-03-01T09:17:06;80.10;;;37.00;;
61358;SDS011;47228;46.762;23.598;2023-03-01T09:19:34;70.30;;;35.50;;
61358;SDS011;47228;46.762;23.598;2023-03-01T09:22:03;76.20;;;36.60;;
61358;SDS011;47228;46.762;23.598;2023-03-01T09:24:31;71.70;;;34.00;;
61358;SDS011;47228;46.762;23.598;2023-03-01T09:26:59;76.10;;;35.30;;
61358;SDS011;47228;46.762;23.598;2023-03-01T09:29:28;72.20;;;34.00;;
61358;SDS011;47228;46.762;23.598;2023-03-01T09:31:56;71.40;;;33.50;;
61358;SDS011;47228;46.762;23.598;2023-03-01T09:34:24;64.90;;;33.00;;
61358;SDS011;47228;46.762;23.598;2023-03-01T09:36:53;68.30;;;32.30;;
61358;SDS011;47228;46.762;23.598;2023-03-01T09:39:21;71.00;;;33.70;;
61358;SDS011;47228;46.762;23.598;2023-03-01T09:41:54;64.50;;;32.00;;
61358;SDS011;47228;46.762;23.598;2023-03-01T09:47:27;67.40;;;30.00;;
61358;SDS011;47228;46.762;23.598;2023-03-01T09:50:12;55.40;;;26.90;;
61358;SDS011;47228;46.762;23.598;2023-03-01T09:52:59;52.00;;;26.30;;
61358;SDS011;47228;46.762;23.598;2023-03-01T10:00:59;48.00;;;24.60;;
61358;SDS011;47228;46.762;23.598;2023-03-01T10:03:44;54.60;;;25.00;;
61358;SDS011;47228;46.762;23.598;2023-03-01T10:06:28;54.10;;;24.40;;
61358;SDS011;47228;46.762;23.598;2023-03-01T10:09:04;41.60;;;20.80;;
61358;SDS011;47228;46.762;23.598;2023-03-01T10:11:39;35.20;;;18.20;;
61358;SDS011;47228;46.762;23.598;2023-03-01T10:17:11;39.00;;;19.90;;
61358;SDS011;47228;46.762;23.598;2023-03-01T10:23:25;45.40;;;21.70;;
61358;SDS011;47228;46.762;23.598;2023-03-01T10:29:00;40.80;;;22.60;;
61358;SDS011;47228;46.762;23.598;2023-03-01T10:34:18;47.20;;;23.30;;
61358;SDS011;47228;46.762;23.598;2023-03-01T10:36:52;35.20;;;18.00;;
61358;SDS011;47228;46.762;23.598;2023-03-01T10:39:25;35.10;;;17.00;;
61358;SDS011;47228;46.762;23.598;2023-03-01T10:47:18;39.80;;;20.40;;
61358;SDS011;47228;46.762;23.598;2023-03-01T10:49:57;42.40;;;21.20;;
61358;SDS011;47228;46.762;23.598;2023-03-01T10:52:32;43.50;;;22.70;;
61358;SDS011;47228;46.762;23.598;2023-03-01T10:55:04;41.00;;;22.60;;
61358;SDS011;47228;46.762;23.598;2023-03-01T10:58:06;42.10;;;22.00;;
61358;SDS011;47228;46.762;23.598;2023-03-01T11:01:02;43.70;;;21.70;;
61358;SDS011;47228;46.762;23.598;2023-03-01T11:16:29;40.80;;;22.50;;
61358;SDS011;47228;46.762;23.598;2023-03-01T11:19:13;34.60;;;19.10;;
61358;SDS011;47228;46.762;23.598;2023-03-01T11:24:42;33.70;;;19.20;;
61358;SDS011;47228;46.762;23.598;2023-03-01T11:27:23;42.70;;;18.10;;
61358;SDS011;47228;46.762;23.598;2023-03-01T11:29:55;36.90;;;20.60;;
61358;SDS011;47228;46.762;23.598;2023-03-01T11:32:25;41.70;;;22.50;;
61358;SDS011;47228;46.762;23.598;2023-03-01T11:34:57;44.70;;;22.80;;
61358;SDS011;47228;46.762;23.598;2023-03-01T11:40:24;34.40;;;19.30;;
61358;SDS011;47228;46.762;23.598;2023-03-01T11:51:20;22.80;;;11.60;;
61358;SDS011;47228;46.762;23.598;2023-03-01T11:54:05;17.30;;;9.50;;
61358;SDS011;47228;46.762;23.598;2023-03-01T11:56:43;16.60;;;9.20;;
61358;SDS011;47228;46.762;23.598;2023-03-01T12:05:23;22.00;;;8.90;;
61358;SDS011;47228;46.762;23.598;2023-03-01T12:07:53;19.80;;;9.20;;
61358;SDS011;47228;46.762;23.598;2023-03-01T12:16:24;18.60;;;9.80;;
61358;SDS011;47228;46.762;23.598;2023-03-01T12:22:00;19.40;;;8.80;;
61358;SDS011;47228;46.762;23.598;2023-03-01T12:24:44;17.90;;;8.80;;
61358;SDS011;47228;46.762;23.598;2023-03-01T12:27:36;21.80;;;8.50;;
61358;SDS011;47228;46.762;23.598;2023-03-01T12:30:33;20.80;;;8.60;;
61358;SDS011;47228;46.762;23.598;2023-03-01T12:35:50;18.30;;;9.00;;
61358;SDS011;47228;46.762;23.598;2023-03-01T12:38:42;19.10;;;9.20;;
61358;SDS011;47228;46.762;23.598;2023-03-01T12:49:39;18.00;;;9.20;;
61358;SDS011;47228;46.762;23.598;2023-03-01T12:52:23;18.80;;;9.40;;
61358;SDS011;47228;46.762;23.598;2023-03-01T12:55:00;19.90;;;10.20;;
61358;SDS011;47228;46.762;23.598;2023-03-01T12:57:31;21.40;;;9.20;;
61358;SDS011;47228;46.762;23.598;2023-03-01T13:06:08;24.20;;;11.70;;
61358;SDS011;47228;46.762;23.598;2023-03-01T13:08:48;21.30;;;11.80;;
61358;SDS011;47228;46.762;23.598;2023-03-01T13:11:24;23.20;;;11.10;;
61358;SDS011;47228;46.762;23.598;2023-03-01T13:13:52;29.10;;;12.80;;
61358;SDS011;47228;46.762;23.598;2023-03-01T13:16:46;25.30;;;11.70;;
61358;SDS011;47228;46.762;23.598;2023-03-01T13:19:20;23.30;;;11.90;;
61358;SDS011;47228;46.762;23.598;2023-03-01T13:21:51;22.50;;;11.70;;
61358;SDS011;47228;46.762;23.598;2023-03-01T13:24:55;23.00;;;11.10;;
61358;SDS011;47228;46.762;23.598;2023-03-01T13:27:28;23.60;;;11.50;;
61358;SDS011;47228;46.762;23.598;2023-03-01T13:29:57;24.20;;;11.50;;
61358;SDS011;47228;46.762;23.598;2023-03-01T13:32:34;25.60;;;11.40;;
61358;SDS011;47228;46.762;23.598;2023-03-01T13:37:42;27.20;;;11.10;;
61358;SDS011;47228;46.762;23.598;2023-03-01T13:42:46;28.50;;;12.70;;
61358;SDS011;47228;46.762;23.598;2023-03-01T13:48:08;25.00;;;11.80;;
61358;SDS011;47228;46.762;23.598;2023-03-01T13:50:43;26.80;;;11.30;;
61358;SDS011;47228;46.762;23.598;2023-03-01T13:53:19;30.50;;;12.10;;
61358;SDS011;47228;46.762;23.598;2023-03-01T13:55:51;22.50;;;11.60;;
61358;SDS011;47228;46.762;23.598;2023-03-01T13:58:30;25.30;;;11.20;;
61358;SDS011;47228;46.762;23.598;2023-03-01T14:01:03;29.50;;;12.00;;
61358;SDS011;47228;46.762;23.598;2023-03-01T14:03:39;23.60;;;11.80;;
61358;SDS011;47228;46.762;23.598;2023-03-01T14:06:12;28.20;;;11.30;;
61358;SDS011;47228;46.762;23.598;2023-03-01T14:08:48;26.50;;;11.50;;
61358;SDS011;47228;46.762;23.598;2023-03-01T14:19:56;25.50;;;11.00;;
61358;SDS011;47228;46.762;23.598;2023-03-01T14:22:27;25.40;;;12.50;;
61358;SDS011;47228;46.762;23.598;2023-03-01T14:24:58;39.80;;;12.70;;
61358;SDS011;47228;46.762;23.598;2023-03-01T14:27:30;27.60;;;13.10;;
61358;SDS011;47228;46.762;23.598;2023-03-01T14:30:04;32.30;;;13.70;;
61358;SDS011;47228;46.762;23.598;2023-03-01T14:32:40;26.20;;;12.80;;
61358;SDS011;47228;46.762;23.598;2023-03-01T14:38:19;24.80;;;11.40;;
61358;SDS011;47228;46.762;23.598;2023-03-01T14:40:50;28.30;;;12.70;;
61358;SDS011;47228;46.762;23.598;2023-03-01T14:43:22;27.70;;;12.40;;
61358;SDS011;47228;46.762;23.598;2023-03-01T14:45:53;25.30;;;12.50;;
61358;SDS011;47228;46.762;23.598;2023-03-01T14:48:21;27.60;;;12.10;;
61358;SDS011;47228;46.762;23.598;2023-03-01T14:50:50;27.90;;;12.60;;
61358;SDS011;47228;46.762;23.598;2023-03-01T14:53:19;31.10;;;14.40;;
61358;SDS011;47228;46.762;23.598;2023-03-01T14:55:51;31.00;;;15.80;;
61358;SDS011;47228;46.762;23.598;2023-03-01T14:58:22;31.40;;;15.20;;
61358;SDS011;47228;46.762;23.598;2023-03-01T15:00:56;26.90;;;13.50;;
61358;SDS011;47228;46.762;23.598;2023-03-01T15:03:37;31.60;;;14.30;;
61358;SDS011;47228;46.762;23.598;2023-03-01T15:06:08;28.90;;;13.10;;
61358;SDS011;47228;46.762;23.598;2023-03-01T15:08:44;30.30;;;14.10;;
61358;SDS011;47228;46.762;23.598;2023-03-01T15:13:52;32.20;;;15.00;;
61358;SDS011;47228;46.762;23.598;2023-03-01T15:19:00;31.20;;;12.90;;
61358;SDS011;47228;46.762;23.598;2023-03-01T15:21:31;30.10;;;14.80;;
61358;SDS011;47228;46.762;23.598;2023-03-01T15:26:41;33.30;;;16.10;;
61358;SDS011;47228;46.762;23.598;2023-03-01T15:29:33;32.00;;;15.00;;
61358;SDS011;47228;46.762;23.598;2023-03-01T15:32:02;33.80;;;14.20;;
61358;SDS011;47228;46.762;23.598;2023-03-01T15:34:33;38.30;;;15.00;;
61358;SDS011;47228;46.762;23.598;2023-03-01T15:37:05;36.00;;;15.90;;
61358;SDS011;47228;46.762;23.598;2023-03-01T15:39:56;41.00;;;17.30;;
61358;SDS011;47228;46.762;23.598;2023-03-01T15:47:48;32.60;;;15.60;;
61358;SDS011;47228;46.762;23.598;2023-03-01T15:50:19;35.40;;;16.60;;
61358;SDS011;47228;46.762;23.598;2023-03-01T15:53:01;35.30;;;17.10;;
61358;SDS011;47228;46.762;23.598;2023-03-01T15:55:33;39.70;;;17.20;;
61358;SDS011;47228;46.762;23.598;2023-03-01T16:00:50;42.50;;;20.60;;
61358;SDS011;47228;46.762;23.598;2023-03-01T16:03:28;39.90;;;18.40;;
61358;SDS011;47228;46.762;23.598;2023-03-01T16:05:57;38.30;;;18.20;;
61358;SDS011;47228;46.762;23.598;2023-03-01T16:08:25;37.90;;;17.00;;
61358;SDS011;47228;46.762;23.598;2023-03-01T16:10:58;35.70;;;17.40;;
61358;SDS011;47228;46.762;23.598;2023-03-01T16:13:28;35.80;;;16.70;;
61358;SDS011;47228;46.762;23.598;2023-03-01T16:15:56;37.00;;;18.20;;
61358;SDS011;47228;46.762;23.598;2023-03-01T16:18:24;34.50;;;18.40;;
61358;SDS011;47228;46.762;23.598;2023-03-01T16:20:51;38.60;;;18.60;;
61358;SDS011;47228;46.762;23.598;2023-03-01T16:23:21;33.70;;;17.40;;
61358;SDS011;47228;46.762;23.598;2023-03-01T16:25:52;40.40;;;19.50;;
61358;SDS011;47228;46.762;23.598;2023-03-01T16:28:20;39.90;;;20.10;;
61358;SDS011;47228;46.762;23.598;2023-03-01T16:30:48;36.60;;;17.70;;
61358;SDS011;47228;46.762;23.598;2023-03-01T16:33:17;39.60;;;19.00;;
61358;SDS011;47228;46.762;23.598;2023-03-01T16:35:58;34.60;;;17.10;;
61358;SDS011;47228;46.762;23.598;2023-03-01T16:38:28;36.50;;;17.70;;
61358;SDS011;47228;46.762;23.598;2023-03-01T16:40:56;34.40;;;17.80;;
61358;SDS011;47228;46.762;23.598;2023-03-01T16:43:24;38.00;;;16.60;;
61358;SDS011;47228;46.762;23.598;2023-03-01T16:45:52;29.30;;;15.50;;
61358;SDS011;47228;46.762;23.598;2023-03-01T16:48:20;34.70;;;16.70;;
61358;SDS011;47228;46.762;23.598;2023-03-01T16:51:00;34.80;;;16.40;;
61358;SDS011;47228;46.762;23.598;2023-03-01T16:53:29;33.00;;;16.50;;
61358;SDS011;47228;46.762;23.598;2023-03-01T16:55:57;36.00;;;18.00;;
61358;SDS011;47228;46.762;23.598;2023-03-01T16:58:26;38.60;;;18.90;;